sensor_id;sensor_type;location;lat;lon;timestamp;temperature;humidity
21238;DHT22;10777;50.828;3.264;2022-09-27T00:01:59;13.50;99.90
21238;DHT22;10777;50.828;3.264;2022-09-27T00:04:25;13.40;99.90
21238;DHT22;10777;50.828;3.264;2022-09-27T00:06:52;13.30;99.90
21238;DHT22;10777;50.828;3.264;2022-09-27T00:09:17;13.40;99.90
21238;DHT22;10777;50.828;3.264;2022-09-27T00:11:43;13.30;99.90
21238;DHT22;10777;50.828;3.264;2022-09-27T00:14:11;13.30;99.90
21238;DHT22;10777;50.828;3.264;2022-09-27T00:16:38;13.40;99.90
21238;DHT22;10777;50.828;3.264;2022-09-27T00:19:10;13.30;99.90
21238;DHT22;10777;50.828;3.264;2022-09-27T00:21:36;13.20;99.90
21238;DHT22;10777;50.828;3.264;2022-09-27T00:24:02;13.30;99.90
21238;DHT22;10777;50.828;3.264;2022-09-27T00:26:28;13.30;99.90
21238;DHT22;10777;50.828;3.264;2022-09-27T00:28:54;13.30;99.90
21238;DHT22;10777;50.828;3.264;2022-09-27T00:31:23;13.20;99.90
21238;DHT22;10777;50.828;3.264;2022-09-27T00:33:51;13.30;99.90
21238;DHT22;10777;50.828;3.264;2022-09-27T00:36:18;13.40;99.90
21238;DHT22;10777;50.828;3.264;2022-09-27T00:38:45;13.70;99.90
21238;DHT22;10777;50.828;3.264;2022-09-27T00:41:16;13.70;99.90
21238;DHT22;10777;50.828;3.264;2022-09-27T00:43:45;13.60;99.90
21238;DHT22;10777;50.828;3.264;2022-09-27T00:46:13;13.60;99.90
21238;DHT22;10777;50.828;3.264;2022-09-27T00:48:42;13.40;99.90
21238;DHT22;10777;50.828;3.264;2022-09-27T00:51:08;13.30;99.90
21238;DHT22;10777;50.828;3.264;2022-09-27T00:53:41;13.10;99.90
21238;DHT22;10777;50.828;3.264;2022-09-27T00:56:16;13.10;99.90
21238;DHT22;10777;50.828;3.264;2022-09-27T00:58:47;13.20;99.90
21238;DHT22;10777;50.828;3.264;2022-09-27T01:01:15;13.20;99.90
21238;DHT22;10777;50.828;3.264;2022-09-27T01:03:56;13.00;99.90
21238;DHT22;10777;50.828;3.264;2022-09-27T01:06:24;13.10;99.90
21238;DHT22;10777;50.828;3.264;2022-09-27T01:08:50;13.10;99.90
21238;DHT22;10777;50.828;3.264;2022-09-27T01:11:39;13.00;99.90
21238;DHT22;10777;50.828;3.264;2022-09-27T01:17:31;12.90;99.90
21238;DHT22;10777;50.828;3.264;2022-09-27T01:23:19;12.80;99.90
21238;DHT22;10777;50.828;3.264;2022-09-27T01:26:17;12.70;99.90
21238;DHT22;10777;50.828;3.264;2022-09-27T01:29:14;12.60;99.90
21238;DHT22;10777;50.828;3.264;2022-09-27T01:31:52;12.70;99.90
21238;DHT22;10777;50.828;3.264;2022-09-27T01:34:26;13.00;99.90
21238;DHT22;10777;50.828;3.264;2022-09-27T01:37:20;12.90;99.90
21238;DHT22;10777;50.828;3.264;2022-09-27T01:40:23;12.90;99.90
21238;DHT22;10777;50.828;3.264;2022-09-27T01:43:05;13.00;99.90
21238;DHT22;10777;50.828;3.264;2022-09-27T01:45:37;12.80;99.90
21238;DHT22;10777;50.828;3.264;2022-09-27T01:48:14;12.50;99.90
21238;DHT22;10777;50.828;3.264;2022-09-27T01:50:50;12.30;99.90
21238;DHT22;10777;50.828;3.264;2022-09-27T01:53:23;12.10;99.90
21238;DHT22;10777;50.828;3.264;2022-09-27T01:55:50;12.00;99.90
21238;DHT22;10777;50.828;3.264;2022-09-27T01:58:24;12.20;99.90
21238;DHT22;10777;50.828;3.264;2022-09-27T02:00:52;12.10;99.90
21238;DHT22;10777;50.828;3.264;2022-09-27T02:03:22;12.00;99.90
21238;DHT22;10777;50.828;3.264;2022-09-27T02:05:55;12.10;99.90
21238;DHT22;10777;50.828;3.264;2022-09-27T02:08:32;12.00;99.90
21238;DHT22;10777;50.828;3.264;2022-09-27T02:11:04;12.00;99.90
21238;DHT22;10777;50.828;3.264;2022-09-27T02:13:55;12.00;99.90
21238;DHT22;10777;50.828;3.264;2022-09-27T02:16:31;11.90;99.90
21238;DHT22;10777;50.828;3.264;2022-09-27T02:22:14;11.60;99.90
21238;DHT22;10777;50.828;3.264;2022-09-27T02:25:01;11.70;99.90
21238;DHT22;10777;50.828;3.264;2022-09-27T02:27:34;11.60;99.90
21238;DHT22;10777;50.828;3.264;2022-09-27T02:30:07;11.50;99.90
21238;DHT22;10777;50.828;3.264;2022-09-27T02:32:34;11.50;99.90
21238;DHT22;10777;50.828;3.264;2022-09-27T02:35:03;11.50;99.90
21238;DHT22;10777;50.828;3.264;2022-09-27T02:37:30;11.70;99.90
21238;DHT22;10777;50.828;3.264;2022-09-27T02:39:56;11.40;99.90
21238;DHT22;10777;50.828;3.264;2022-09-27T02:42:26;11.50;99.90
21238;DHT22;10777;50.828;3.264;2022-09-27T02:44:52;11.60;99.90
21238;DHT22;10777;50.828;3.264;2022-09-27T02:50:52;11.60;99.90
21238;DHT22;10777;50.828;3.264;2022-09-27T02:54:03;11.40;99.90
21238;DHT22;10777;50.828;3.264;2022-09-27T02:56:50;11.30;99.90
21238;DHT22;10777;50.828;3.264;2022-09-27T02:59:32;11.70;99.90
21238;DHT22;10777;50.828;3.264;2022-09-27T03:02:13;11.60;99.90
21238;DHT22;10777;50.828;3.264;2022-09-27T03:04:48;11.40;99.90
21238;DHT22;10777;50.828;3.264;2022-09-27T03:07:18;11.50;99.90
21238;DHT22;10777;50.828;3.264;2022-09-27T03:09:46;11.50;99.90
21238;DHT22;10777;50.828;3.264;2022-09-27T03:12:13;11.50;99.90
21238;DHT22;10777;50.828;3.264;2022-09-27T03:14:39;11.30;99.90
21238;DHT22;10777;50.828;3.264;2022-09-27T03:17:05;11.30;99.90
21238;DHT22;10777;50.828;3.264;2022-09-27T03:19:31;11.30;99.90
21238;DHT22;10777;50.828;3.264;2022-09-27T03:21:57;11.10;99.90
21238;DHT22;10777;50.828;3.264;2022-09-27T03:24:23;11.10;99.90
21238;DHT22;10777;50.828;3.264;2022-09-27T03:26:48;11.20;99.90
21238;DHT22;10777;50.828;3.264;2022-09-27T03:29:14;11.40;99.90
21238;DHT22;10777;50.828;3.264;2022-09-27T03:31:41;11.40;99.90
21238;DHT22;10777;50.828;3.264;2022-09-27T03:34:06;11.70;99.90
21238;DHT22;10777;50.828;3.264;2022-09-27T03:36:32;11.70;99.90
21238;DHT22;10777;50.828;3.264;2022-09-27T03:38:58;11.60;99.90
21238;DHT22;10777;50.828;3.264;2022-09-27T03:41:23;11.60;99.90
21238;DHT22;10777;50.828;3.264;2022-09-27T03:43:49;11.70;99.90
21238;DHT22;10777;50.828;3.264;2022-09-27T03:46:14;11.70;99.90
21238;DHT22;10777;50.828;3.264;2022-09-27T03:48:40;11.80;99.90
21238;DHT22;10777;50.828;3.264;2022-09-27T03:51:07;11.90;99.90
21238;DHT22;10777;50.828;3.264;2022-09-27T03:53:32;11.80;99.90
21238;DHT22;10777;50.828;3.264;2022-09-27T03:55:58;11.90;99.90
21238;DHT22;10777;50.828;3.264;2022-09-27T03:58:24;11.90;99.90
21238;DHT22;10777;50.828;3.264;2022-09-27T04:00:49;12.10;99.90
21238;DHT22;10777;50.828;3.264;2022-09-27T04:03:15;12.30;99.90
21238;DHT22;10777;50.828;3.264;2022-09-27T04:05:42;12.20;99.90
21238;DHT22;10777;50.828;3.264;2022-09-27T04:08:07;12.30;99.90
21238;DHT22;10777;50.828;3.264;2022-09-27T04:10:35;12.60;99.90
21238;DHT22;10777;50.828;3.264;2022-09-27T04:13:01;12.60;99.90
21238;DHT22;10777;50.828;3.264;2022-09-27T04:15:26;12.50;99.90
21238;DHT22;10777;50.828;3.264;2022-09-27T04:17:52;12.40;99.90
21238;DHT22;10777;50.828;3.264;2022-09-27T04:20:18;12.70;99.90
21238;DHT22;10777;50.828;3.264;2022-09-27T04:22:43;12.80;99.90
21238;DHT22;10777;50.828;3.264;2022-09-27T04:25:10;12.70;99.90
21238;DHT22;10777;50.828;3.264;2022-09-27T04:27:36;12.80;99.90
21238;DHT22;10777;50.828;3.264;2022-09-27T04:30:03;12.70;99.90
21238;DHT22;10777;50.828;3.264;2022-09-27T04:32:30;12.40;99.90
21238;DHT22;10777;50.828;3.264;2022-09-27T04:34:56;12.40;99.90
21238;DHT22;10777;50.828;3.264;2022-09-27T04:37:42;12.40;99.90
21238;DHT22;10777;50.828;3.264;2022-09-27T04:40:09;12.50;99.90
21238;DHT22;10777;50.828;3.264;2022-09-27T04:42:35;12.50;99.90
21238;DHT22;10777;50.828;3.264;2022-09-27T04:45:00;11.90;99.90
21238;DHT22;10777;50.828;3.264;2022-09-27T04:47:26;11.90;99.90
21238;DHT22;10777;50.828;3.264;2022-09-27T04:49:52;12.10;99.90
21238;DHT22;10777;50.828;3.264;2022-09-27T04:52:18;12.40;99.90
21238;DHT22;10777;50.828;3.264;2022-09-27T04:54:43;12.60;99.90
21238;DHT22;10777;50.828;3.264;2022-09-27T04:57:09;12.80;99.90
21238;DHT22;10777;50.828;3.264;2022-09-27T04:59:36;12.90;99.90
21238;DHT22;10777;50.828;3.264;2022-09-27T05:02:02;12.90;99.90
21238;DHT22;10777;50.828;3.264;2022-09-27T05:04:27;12.80;99.90
21238;DHT22;10777;50.828;3.264;2022-09-27T05:06:54;12.90;99.90
21238;DHT22;10777;50.828;3.264;2022-09-27T05:09:19;12.70;99.90
21238;DHT22;10777;50.828;3.264;2022-09-27T05:11:45;12.70;99.90
21238;DHT22;10777;50.828;3.264;2022-09-27T05:14:11;12.60;99.90
21238;DHT22;10777;50.828;3.264;2022-09-27T05:16:38;12.70;99.90
21238;DHT22;10777;50.828;3.264;2022-09-27T05:19:03;12.70;99.90
21238;DHT22;10777;50.828;3.264;2022-09-27T05:21:30;12.60;99.90
21238;DHT22;10777;50.828;3.264;2022-09-27T05:23:56;12.50;99.90
21238;DHT22;10777;50.828;3.264;2022-09-27T05:26:22;12.60;99.90
21238;DHT22;10777;50.828;3.264;2022-09-27T05:28:48;12.60;99.90
21238;DHT22;10777;50.828;3.264;2022-09-27T05:31:13;12.50;99.90
21238;DHT22;10777;50.828;3.264;2022-09-27T05:33:40;12.40;99.90
21238;DHT22;10777;50.828;3.264;2022-09-27T05:36:07;12.40;99.90
21238;DHT22;10777;50.828;3.264;2022-09-27T05:38:33;12.30;99.90
21238;DHT22;10777;50.828;3.264;2022-09-27T05:40:59;12.10;99.90
21238;DHT22;10777;50.828;3.264;2022-09-27T05:43:25;12.10;99.90
21238;DHT22;10777;50.828;3.264;2022-09-27T05:45:52;12.20;99.90
21238;DHT22;10777;50.828;3.264;2022-09-27T05:48:17;12.30;99.90
21238;DHT22;10777;50.828;3.264;2022-09-27T05:50:44;12.50;99.90
21238;DHT22;10777;50.828;3.264;2022-09-27T05:53:10;12.50;99.90
21238;DHT22;10777;50.828;3.264;2022-09-27T05:55:37;12.20;99.90
21238;DHT22;10777;50.828;3.264;2022-09-27T05:58:05;12.10;99.90
21238;DHT22;10777;50.828;3.264;2022-09-27T06:00:32;12.50;99.90
21238;DHT22;10777;50.828;3.264;2022-09-27T06:03:02;12.60;99.90
21238;DHT22;10777;50.828;3.264;2022-09-27T06:05:30;12.50;99.90
21238;DHT22;10777;50.828;3.264;2022-09-27T06:08:01;12.50;99.90
21238;DHT22;10777;50.828;3.264;2022-09-27T06:10:28;12.50;99.90
21238;DHT22;10777;50.828;3.264;2022-09-27T06:12:59;12.50;99.90
21238;DHT22;10777;50.828;3.264;2022-09-27T06:15:27;12.50;99.90
21238;DHT22;10777;50.828;3.264;2022-09-27T06:17:53;12.80;99.90
21238;DHT22;10777;50.828;3.264;2022-09-27T06:20:18;12.50;99.90
21238;DHT22;10777;50.828;3.264;2022-09-27T06:22:45;12.40;99.90
21238;DHT22;10777;50.828;3.264;2022-09-27T06:25:11;12.20;99.90
21238;DHT22;10777;50.828;3.264;2022-09-27T06:27:37;12.50;99.90
21238;DHT22;10777;50.828;3.264;2022-09-27T06:30:04;12.70;99.90
21238;DHT22;10777;50.828;3.264;2022-09-27T06:32:29;12.80;99.90
21238;DHT22;10777;50.828;3.264;2022-09-27T06:34:56;12.90;99.90
21238;DHT22;10777;50.828;3.264;2022-09-27T06:37:24;12.90;99.90
21238;DHT22;10777;50.828;3.264;2022-09-27T06:39:51;12.80;99.90
21238;DHT22;10777;50.828;3.264;2022-09-27T06:42:17;12.90;99.90
21238;DHT22;10777;50.828;3.264;2022-09-27T06:44:44;12.90;99.90
21238;DHT22;10777;50.828;3.264;2022-09-27T06:47:15;12.40;99.90
21238;DHT22;10777;50.828;3.264;2022-09-27T06:49:41;12.40;99.90
21238;DHT22;10777;50.828;3.264;2022-09-27T06:52:07;12.50;99.90
21238;DHT22;10777;50.828;3.264;2022-09-27T06:54:32;12.50;99.90
21238;DHT22;10777;50.828;3.264;2022-09-27T06:56:58;12.50;99.90
21238;DHT22;10777;50.828;3.264;2022-09-27T06:59:23;12.60;99.90
21238;DHT22;10777;50.828;3.264;2022-09-27T07:02:09;12.70;99.90
21238;DHT22;10777;50.828;3.264;2022-09-27T07:04:35;12.50;99.90
21238;DHT22;10777;50.828;3.264;2022-09-27T07:07:00;12.60;99.90
21238;DHT22;10777;50.828;3.264;2022-09-27T07:09:26;12.60;99.90
21238;DHT22;10777;50.828;3.264;2022-09-27T07:11:51;12.50;99.90
21238;DHT22;10777;50.828;3.264;2022-09-27T07:14:19;12.50;99.90
21238;DHT22;10777;50.828;3.264;2022-09-27T07:16:46;12.50;99.90
21238;DHT22;10777;50.828;3.264;2022-09-27T07:19:11;12.70;99.90
21238;DHT22;10777;50.828;3.264;2022-09-27T07:21:38;12.60;99.90
21238;DHT22;10777;50.828;3.264;2022-09-27T07:24:04;12.70;99.90
21238;DHT22;10777;50.828;3.264;2022-09-27T07:26:30;12.90;99.90
21238;DHT22;10777;50.828;3.264;2022-09-27T07:28:55;12.80;99.90
21238;DHT22;10777;50.828;3.264;2022-09-27T07:31:21;12.70;99.90
21238;DHT22;10777;50.828;3.264;2022-09-27T07:33:48;12.70;99.90
21238;DHT22;10777;50.828;3.264;2022-09-27T07:36:14;12.70;99.90
21238;DHT22;10777;50.828;3.264;2022-09-27T07:38:40;12.70;99.90
21238;DHT22;10777;50.828;3.264;2022-09-27T07:41:09;12.60;99.90
21238;DHT22;10777;50.828;3.264;2022-09-27T07:43:36;12.90;99.90
21238;DHT22;10777;50.828;3.264;2022-09-27T07:46:02;12.90;99.90
21238;DHT22;10777;50.828;3.264;2022-09-27T07:48:28;12.90;99.90
21238;DHT22;10777;50.828;3.264;2022-09-27T07:50:53;13.00;99.90
21238;DHT22;10777;50.828;3.264;2022-09-27T07:53:19;12.80;99.90
21238;DHT22;10777;50.828;3.264;2022-09-27T07:55:49;12.70;99.90
21238;DHT22;10777;50.828;3.264;2022-09-27T07:58:17;13.00;99.90
21238;DHT22;10777;50.828;3.264;2022-09-27T08:00:43;13.00;99.90
21238;DHT22;10777;50.828;3.264;2022-09-27T08:03:12;12.90;99.90
21238;DHT22;10777;50.828;3.264;2022-09-27T08:05:45;12.80;99.90
21238;DHT22;10777;50.828;3.264;2022-09-27T08:08:12;12.90;99.90
21238;DHT22;10777;50.828;3.264;2022-09-27T08:10:38;13.00;99.90
21238;DHT22;10777;50.828;3.264;2022-09-27T08:13:12;13.10;99.90
21238;DHT22;10777;50.828;3.264;2022-09-27T08:15:39;13.20;99.90
21238;DHT22;10777;50.828;3.264;2022-09-27T08:18:05;12.80;99.90
21238;DHT22;10777;50.828;3.264;2022-09-27T08:20:31;13.60;99.90
21238;DHT22;10777;50.828;3.264;2022-09-27T08:22:57;14.00;99.90
21238;DHT22;10777;50.828;3.264;2022-09-27T08:25:23;13.60;99.90
21238;DHT22;10777;50.828;3.264;2022-09-27T08:27:57;13.60;99.90
21238;DHT22;10777;50.828;3.264;2022-09-27T08:30:23;13.60;99.90
21238;DHT22;10777;50.828;3.264;2022-09-27T08:32:49;13.70;99.90
21238;DHT22;10777;50.828;3.264;2022-09-27T08:35:18;13.80;99.90
21238;DHT22;10777;50.828;3.264;2022-09-27T08:37:55;14.00;99.90
21238;DHT22;10777;50.828;3.264;2022-09-27T08:40:23;14.00;99.90
21238;DHT22;10777;50.828;3.264;2022-09-27T08:43:05;13.80;99.90
21238;DHT22;10777;50.828;3.264;2022-09-27T08:45:49;13.50;99.90
21238;DHT22;10777;50.828;3.264;2022-09-27T08:48:19;13.10;99.90
21238;DHT22;10777;50.828;3.264;2022-09-27T08:50:46;13.10;99.90
21238;DHT22;10777;50.828;3.264;2022-09-27T08:53:21;13.10;99.90
21238;DHT22;10777;50.828;3.264;2022-09-27T08:55:50;12.90;99.90
21238;DHT22;10777;50.828;3.264;2022-09-27T08:58:26;12.70;99.90
21238;DHT22;10777;50.828;3.264;2022-09-27T09:00:54;12.60;99.90
21238;DHT22;10777;50.828;3.264;2022-09-27T09:03:26;12.40;99.90
21238;DHT22;10777;50.828;3.264;2022-09-27T09:06:28;12.30;99.90
21238;DHT22;10777;50.828;3.264;2022-09-27T09:09:23;12.40;99.90
21238;DHT22;10777;50.828;3.264;2022-09-27T09:15:37;12.50;99.90
21238;DHT22;10777;50.828;3.264;2022-09-27T09:18:28;12.60;99.90
21238;DHT22;10777;50.828;3.264;2022-09-27T09:21:10;12.80;99.90
21238;DHT22;10777;50.828;3.264;2022-09-27T09:26:59;13.20;99.90
21238;DHT22;10777;50.828;3.264;2022-09-27T09:33:10;13.90;99.90
21238;DHT22;10777;50.828;3.264;2022-09-27T09:38:47;13.80;99.90
21238;DHT22;10777;50.828;3.264;2022-09-27T09:41:25;13.80;99.90
21238;DHT22;10777;50.828;3.264;2022-09-27T09:44:21;14.10;99.90
21238;DHT22;10777;50.828;3.264;2022-09-27T09:46:52;14.10;99.90
21238;DHT22;10777;50.828;3.264;2022-09-27T09:49:27;14.10;99.90
21238;DHT22;10777;50.828;3.264;2022-09-27T09:51:58;14.30;99.90
21238;DHT22;10777;50.828;3.264;2022-09-27T09:54:31;14.50;99.90
21238;DHT22;10777;50.828;3.264;2022-09-27T09:57:14;14.60;99.90
21238;DHT22;10777;50.828;3.264;2022-09-27T09:59:50;14.70;99.90
21238;DHT22;10777;50.828;3.264;2022-09-27T10:05:06;14.70;99.90
21238;DHT22;10777;50.828;3.264;2022-09-27T10:07:33;14.90;99.90
21238;DHT22;10777;50.828;3.264;2022-09-27T10:10:03;15.30;99.90
21238;DHT22;10777;50.828;3.264;2022-09-27T10:12:29;15.50;99.90
21238;DHT22;10777;50.828;3.264;2022-09-27T10:14:59;14.90;99.90
21238;DHT22;10777;50.828;3.264;2022-09-27T10:17:40;14.70;99.90
21238;DHT22;10777;50.828;3.264;2022-09-27T10:20:07;14.30;99.90
21238;DHT22;10777;50.828;3.264;2022-09-27T10:22:44;14.20;99.90
21238;DHT22;10777;50.828;3.264;2022-09-27T10:25:12;14.10;99.90
21238;DHT22;10777;50.828;3.264;2022-09-27T10:27:45;14.00;99.90
21238;DHT22;10777;50.828;3.264;2022-09-27T10:30:33;14.10;99.90
21238;DHT22;10777;50.828;3.264;2022-09-27T10:33:03;14.10;99.90
21238;DHT22;10777;50.828;3.264;2022-09-27T10:35:34;14.20;99.90
21238;DHT22;10777;50.828;3.264;2022-09-27T10:38:22;14.50;99.90
21238;DHT22;10777;50.828;3.264;2022-09-27T10:40:49;14.50;99.90
21238;DHT22;10777;50.828;3.264;2022-09-27T10:43:34;14.50;99.90
21238;DHT22;10777;50.828;3.264;2022-09-27T10:46:23;14.80;99.90
21238;DHT22;10777;50.828;3.264;2022-09-27T10:49:16;15.10;99.90
21238;DHT22;10777;50.828;3.264;2022-09-27T10:51:43;15.20;99.90
21238;DHT22;10777;50.828;3.264;2022-09-27T10:54:28;15.30;99.90
21238;DHT22;10777;50.828;3.264;2022-09-27T10:57:02;15.30;99.90
21238;DHT22;10777;50.828;3.264;2022-09-27T10:59:33;15.30;99.90
21238;DHT22;10777;50.828;3.264;2022-09-27T11:02:00;15.30;99.90
21238;DHT22;10777;50.828;3.264;2022-09-27T11:04:30;15.40;99.90
21238;DHT22;10777;50.828;3.264;2022-09-27T11:07:15;15.30;99.90
21238;DHT22;10777;50.828;3.264;2022-09-27T11:09:53;15.30;99.90
21238;DHT22;10777;50.828;3.264;2022-09-27T11:12:20;15.40;99.90
21238;DHT22;10777;50.828;3.264;2022-09-27T11:14:58;15.40;99.90
21238;DHT22;10777;50.828;3.264;2022-09-27T11:17:59;15.50;99.90
21238;DHT22;10777;50.828;3.264;2022-09-27T11:20:40;15.50;99.90
21238;DHT22;10777;50.828;3.264;2022-09-27T11:23:30;15.50;99.90
21238;DHT22;10777;50.828;3.264;2022-09-27T11:26:16;15.60;99.90
21238;DHT22;10777;50.828;3.264;2022-09-27T11:28:55;15.30;99.90
21238;DHT22;10777;50.828;3.264;2022-09-27T11:34:41;15.40;99.90
21238;DHT22;10777;50.828;3.264;2022-09-27T11:40:26;15.40;99.90
21238;DHT22;10777;50.828;3.264;2022-09-27T11:43:15;15.60;99.90
21238;DHT22;10777;50.828;3.264;2022-09-27T11:46:09;15.50;99.90
21238;DHT22;10777;50.828;3.264;2022-09-27T11:49:06;15.50;99.90
21238;DHT22;10777;50.828;3.264;2022-09-27T11:57:39;15.70;99.90
21238;DHT22;10777;50.828;3.264;2022-09-27T12:00:19;15.90;99.90
21238;DHT22;10777;50.828;3.264;2022-09-27T12:06:00;16.10;99.90
21238;DHT22;10777;50.828;3.264;2022-09-27T12:08:48;16.20;99.90
21238;DHT22;10777;50.828;3.264;2022-09-27T12:11:30;16.40;99.90
21238;DHT22;10777;50.828;3.264;2022-09-27T12:16:57;16.00;99.90
21238;DHT22;10777;50.828;3.264;2022-09-27T12:19:29;16.00;99.90
21238;DHT22;10777;50.828;3.264;2022-09-27T12:22:01;16.10;99.90
21238;DHT22;10777;50.828;3.264;2022-09-27T12:24:29;16.10;99.90
21238;DHT22;10777;50.828;3.264;2022-09-27T12:27:00;16.20;99.90
21238;DHT22;10777;50.828;3.264;2022-09-27T12:29:32;16.90;99.90
21238;DHT22;10777;50.828;3.264;2022-09-27T12:32:07;17.10;99.90
21238;DHT22;10777;50.828;3.264;2022-09-27T12:34:59;17.20;99.90
21238;DHT22;10777;50.828;3.264;2022-09-27T12:37:38;17.40;99.90
21238;DHT22;10777;50.828;3.264;2022-09-27T12:40:16;17.30;99.90
21238;DHT22;10777;50.828;3.264;2022-09-27T12:42:49;17.20;99.90
21238;DHT22;10777;50.828;3.264;2022-09-27T12:45:21;17.00;99.90
21238;DHT22;10777;50.828;3.264;2022-09-27T12:48:05;16.70;99.90
21238;DHT22;10777;50.828;3.264;2022-09-27T12:50:43;16.60;99.90
21238;DHT22;10777;50.828;3.264;2022-09-27T12:53:16;16.60;99.90
21238;DHT22;10777;50.828;3.264;2022-09-27T12:58:57;16.80;99.90
21238;DHT22;10777;50.828;3.264;2022-09-27T13:07:39;16.30;99.90
21238;DHT22;10777;50.828;3.264;2022-09-27T13:13:10;16.00;99.90
21238;DHT22;10777;50.828;3.264;2022-09-27T13:15:37;15.90;99.90
21238;DHT22;10777;50.828;3.264;2022-09-27T13:18:27;15.90;99.90
21238;DHT22;10777;50.828;3.264;2022-09-27T13:20:54;16.00;99.90
21238;DHT22;10777;50.828;3.264;2022-09-27T13:29:27;15.80;99.90
21238;DHT22;10777;50.828;3.264;2022-09-27T13:32:02;16.60;99.90
21238;DHT22;10777;50.828;3.264;2022-09-27T13:34:44;17.60;99.90
21238;DHT22;10777;50.828;3.264;2022-09-27T13:37:33;18.00;99.90
21238;DHT22;10777;50.828;3.264;2022-09-27T13:40:26;18.10;99.90
21238;DHT22;10777;50.828;3.264;2022-09-27T13:43:18;17.90;99.90
21238;DHT22;10777;50.828;3.264;2022-09-27T13:45:58;17.40;99.90
21238;DHT22;10777;50.828;3.264;2022-09-27T13:48:44;17.00;99.90
21238;DHT22;10777;50.828;3.264;2022-09-27T13:51:34;16.70;99.90
21238;DHT22;10777;50.828;3.264;2022-09-27T13:54:04;16.60;99.90
21238;DHT22;10777;50.828;3.264;2022-09-27T13:56:49;16.40;99.90
21238;DHT22;10777;50.828;3.264;2022-09-27T13:59:32;16.30;99.90
21238;DHT22;10777;50.828;3.264;2022-09-27T14:02:17;16.20;99.90
21238;DHT22;10777;50.828;3.264;2022-09-27T14:04:48;15.90;99.90
21238;DHT22;10777;50.828;3.264;2022-09-27T14:07:18;15.80;99.90
21238;DHT22;10777;50.828;3.264;2022-09-27T14:09:48;15.80;99.90
21238;DHT22;10777;50.828;3.264;2022-09-27T14:12:21;15.90;99.90
21238;DHT22;10777;50.828;3.264;2022-09-27T14:14:49;15.90;99.90
21238;DHT22;10777;50.828;3.264;2022-09-27T14:17:22;16.10;99.90
21238;DHT22;10777;50.828;3.264;2022-09-27T14:19:51;15.90;99.90
21238;DHT22;10777;50.828;3.264;2022-09-27T14:22:21;15.90;99.90
21238;DHT22;10777;50.828;3.264;2022-09-27T14:24:48;16.00;99.90
21238;DHT22;10777;50.828;3.264;2022-09-27T14:27:23;16.40;99.90
21238;DHT22;10777;50.828;3.264;2022-09-27T14:29:52;16.10;99.90
21238;DHT22;10777;50.828;3.264;2022-09-27T14:32:21;16.00;99.90
21238;DHT22;10777;50.828;3.264;2022-09-27T14:35:17;16.10;99.90
21238;DHT22;10777;50.828;3.264;2022-09-27T14:38:16;16.40;99.90
21238;DHT22;10777;50.828;3.264;2022-09-27T14:41:04;16.40;99.90
21238;DHT22;10777;50.828;3.264;2022-09-27T14:43:34;16.50;99.90
21238;DHT22;10777;50.828;3.264;2022-09-27T14:46:04;16.70;99.90
21238;DHT22;10777;50.828;3.264;2022-09-27T14:48:34;16.60;99.90
21238;DHT22;10777;50.828;3.264;2022-09-27T14:51:17;16.70;99.90
21238;DHT22;10777;50.828;3.264;2022-09-27T14:53:50;16.60;99.90
21238;DHT22;10777;50.828;3.264;2022-09-27T14:56:24;16.70;99.90
21238;DHT22;10777;50.828;3.264;2022-09-27T14:59:00;16.70;99.90
21238;DHT22;10777;50.828;3.264;2022-09-27T15:01:27;17.00;99.90
21238;DHT22;10777;50.828;3.264;2022-09-27T15:03:55;16.90;99.90
21238;DHT22;10777;50.828;3.264;2022-09-27T15:06:21;17.00;99.90
21238;DHT22;10777;50.828;3.264;2022-09-27T15:08:49;17.10;99.90
21238;DHT22;10777;50.828;3.264;2022-09-27T15:11:17;17.30;99.90
21238;DHT22;10777;50.828;3.264;2022-09-27T15:13:50;17.10;99.90
21238;DHT22;10777;50.828;3.264;2022-09-27T15:16:24;17.20;99.90
21238;DHT22;10777;50.828;3.264;2022-09-27T15:19:01;17.20;99.90
21238;DHT22;10777;50.828;3.264;2022-09-27T15:21:31;17.40;99.90
21238;DHT22;10777;50.828;3.264;2022-09-27T15:23:57;17.40;99.90
21238;DHT22;10777;50.828;3.264;2022-09-27T15:26:40;17.40;99.90
21238;DHT22;10777;50.828;3.264;2022-09-27T15:29:24;17.20;99.90
21238;DHT22;10777;50.828;3.264;2022-09-27T15:31:59;17.10;99.90
21238;DHT22;10777;50.828;3.264;2022-09-27T15:34:26;17.00;99.90
21238;DHT22;10777;50.828;3.264;2022-09-27T15:36:56;17.00;99.90
21238;DHT22;10777;50.828;3.264;2022-09-27T15:39:31;17.00;99.90
21238;DHT22;10777;50.828;3.264;2022-09-27T15:42:10;17.20;99.90
21238;DHT22;10777;50.828;3.264;2022-09-27T15:44:47;17.10;99.90
21238;DHT22;10777;50.828;3.264;2022-09-27T15:47:38;17.20;99.90
21238;DHT22;10777;50.828;3.264;2022-09-27T15:50:32;17.30;99.90
21238;DHT22;10777;50.828;3.264;2022-09-27T15:52:58;17.20;99.90
21238;DHT22;10777;50.828;3.264;2022-09-27T15:55:25;17.10;99.90
21238;DHT22;10777;50.828;3.264;2022-09-27T15:57:55;17.10;99.90
21238;DHT22;10777;50.828;3.264;2022-09-27T16:00:24;16.90;99.90
21238;DHT22;10777;50.828;3.264;2022-09-27T16:02:51;17.00;99.90
21238;DHT22;10777;50.828;3.264;2022-09-27T16:05:16;16.50;99.90
21238;DHT22;10777;50.828;3.264;2022-09-27T16:07:42;16.60;99.90
21238;DHT22;10777;50.828;3.264;2022-09-27T16:10:16;16.50;99.90
21238;DHT22;10777;50.828;3.264;2022-09-27T16:12:42;16.40;99.90
21238;DHT22;10777;50.828;3.264;2022-09-27T16:15:10;16.40;99.90
21238;DHT22;10777;50.828;3.264;2022-09-27T16:17:36;16.40;99.90
21238;DHT22;10777;50.828;3.264;2022-09-27T16:20:04;16.40;99.90
21238;DHT22;10777;50.828;3.264;2022-09-27T16:22:33;16.50;99.90
21238;DHT22;10777;50.828;3.264;2022-09-27T16:24:58;16.40;99.90
21238;DHT22;10777;50.828;3.264;2022-09-27T16:27:25;16.20;99.90
21238;DHT22;10777;50.828;3.264;2022-09-27T16:29:52;16.00;99.90
21238;DHT22;10777;50.828;3.264;2022-09-27T16:32:18;16.00;99.90
21238;DHT22;10777;50.828;3.264;2022-09-27T16:34:44;15.90;99.90
21238;DHT22;10777;50.828;3.264;2022-09-27T16:37:09;15.90;99.90
21238;DHT22;10777;50.828;3.264;2022-09-27T16:39:35;15.70;99.90
21238;DHT22;10777;50.828;3.264;2022-09-27T16:42:01;15.50;99.90
21238;DHT22;10777;50.828;3.264;2022-09-27T16:44:30;15.40;99.90
21238;DHT22;10777;50.828;3.264;2022-09-27T16:46:58;15.30;99.90
21238;DHT22;10777;50.828;3.264;2022-09-27T16:49:24;15.30;99.90
21238;DHT22;10777;50.828;3.264;2022-09-27T16:52:09;15.30;99.90
21238;DHT22;10777;50.828;3.264;2022-09-27T16:54:35;15.20;99.90
21238;DHT22;10777;50.828;3.264;2022-09-27T16:57:00;15.10;99.90
21238;DHT22;10777;50.828;3.264;2022-09-27T16:59:26;15.20;99.90
21238;DHT22;10777;50.828;3.264;2022-09-27T17:01:52;15.20;99.90
21238;DHT22;10777;50.828;3.264;2022-09-27T17:04:22;15.10;99.90
21238;DHT22;10777;50.828;3.264;2022-09-27T17:06:48;15.00;99.90